createdAt,value
2018-03-11T00:03:30.908Z,44.40
2018-03-11T00:05:59.252Z,36.85
2018-03-11T00:08:26.846Z,37.50
2018-03-11T00:10:54.451Z,35.13
2018-03-11T00:13:22.760Z,40.90
2018-03-11T00:15:51.435Z,34.37
2018-03-11T00:18:19.751Z,35.60
2018-03-11T00:20:47.322Z,34.70
2018-03-11T00:23:15.108Z,34.10
2018-03-11T00:25:42.711Z,40.85
2018-03-11T00:28:10.918Z,39.83
2018-03-11T00:30:39.480Z,34.00
2018-03-11T00:33:07.000Z,36.03
2018-03-11T00:35:34.899Z,38.43
2018-03-11T00:38:02.434Z,37.40
2018-03-11T00:40:30.208Z,43.70
2018-03-11T00:42:58.554Z,39.25
2018-03-11T00:45:26.155Z,39.70
2018-03-11T00:47:53.838Z,37.70
2018-03-11T00:50:21.394Z,37.57
2018-03-11T00:52:50.674Z,39.47
2018-03-11T00:55:18.968Z,34.23
2018-03-11T00:57:47.410Z,32.33
2018-03-11T01:00:15.320Z,37.07
2018-03-11T01:02:43.522Z,37.07
2018-03-11T01:05:11.963Z,43.43
2018-03-11T01:07:39.510Z,34.13
2018-03-11T01:10:07.060Z,40.27
2018-03-11T01:12:35.264Z,31.37
2018-03-11T01:15:02.857Z,45.37
2018-03-11T01:17:30.871Z,34.70
2018-03-11T01:19:59.466Z,35.83
2018-03-11T01:22:26.988Z,40.80
2018-03-11T01:24:54.843Z,42.64
2018-03-11T01:27:22.827Z,37.23
2018-03-11T01:29:53.585Z,39.90
2018-03-11T01:32:21.624Z,40.80
2018-03-11T01:34:52.659Z,42.13
2018-03-11T01:37:20.421Z,43.40
2018-03-11T01:39:47.987Z,40.60
2018-03-11T01:42:15.543Z,34.07
2018-03-11T01:44:43.268Z,36.33
2018-03-11T01:47:11.695Z,38.43
2018-03-11T01:49:40.100Z,44.77
2018-03-11T01:52:08.424Z,43.30
2018-03-11T01:54:36.771Z,39.30
2018-03-11T01:57:04.372Z,40.33
2018-03-11T01:59:32.561Z,39.42
2018-03-11T02:02:01.094Z,37.23
2018-03-11T02:04:28.800Z,36.47
2018-03-11T02:06:56.372Z,39.93
2018-03-11T02:09:23.939Z,40.23
2018-03-11T02:11:51.464Z,35.80
2018-03-11T02:14:20.092Z,41.00
2018-03-11T02:16:47.620Z,45.23
2018-03-11T02:19:15.171Z,40.47
2018-03-11T02:21:42.694Z,31.33
2018-03-11T02:24:10.252Z,34.55
2018-03-11T02:26:37.771Z,35.70
2018-03-11T02:29:05.294Z,44.90
2018-03-11T02:31:32.861Z,47.53
2018-03-11T02:34:00.379Z,38.23
2018-03-11T02:36:27.943Z,37.20
2018-03-11T02:38:55.468Z,53.10
2018-03-11T02:41:23.043Z,46.30
2018-03-11T02:43:50.574Z,38.83
2018-03-11T02:46:18.128Z,36.93
2018-03-11T02:48:45.701Z,40.20
2018-03-11T02:51:13.257Z,32.40
2018-03-11T02:53:40.783Z,46.23
2018-03-11T02:56:08.305Z,39.37
2018-03-11T02:58:35.864Z,38.33
2018-03-11T03:01:03.372Z,40.80
2018-03-11T03:03:30.925Z,31.33
2018-03-11T03:05:58.456Z,38.40
2018-03-11T03:08:26.007Z,42.30
2018-03-11T03:10:53.552Z,31.23
2018-03-11T03:13:21.124Z,49.03
2018-03-11T03:15:48.652Z,29.83
2018-03-11T03:18:16.222Z,30.90
2018-03-11T03:20:43.784Z,32.10
2018-03-11T03:23:11.310Z,35.20
2018-03-11T03:25:38.867Z,29.98
2018-03-11T03:28:06.394Z,30.90
2018-03-11T03:30:33.951Z,36.83
2018-03-11T03:33:01.488Z,39.60
2018-03-11T03:35:29.044Z,34.80
2018-03-11T03:37:56.611Z,34.77
2018-03-11T03:40:24.156Z,37.20
2018-03-11T03:42:51.673Z,46.93
2018-03-11T03:45:19.227Z,35.73
2018-03-11T03:47:46.772Z,49.00
2018-03-11T03:50:14.404Z,37.70
2018-03-11T03:52:41.955Z,35.30
2018-03-11T03:55:09.494Z,32.53
2018-03-11T03:57:37.061Z,38.03
2018-03-11T04:00:04.622Z,46.73
2018-03-11T04:02:32.208Z,55.73
2018-03-11T04:04:59.782Z,31.77
2018-03-11T04:07:27.334Z,28.33
2018-03-11T04:09:54.867Z,31.07
2018-03-11T04:12:23.251Z,32.20
2018-03-11T04:14:50.779Z,39.33
2018-03-11T04:17:18.302Z,34.80
2018-03-11T04:19:45.859Z,30.27
2018-03-11T04:22:13.388Z,29.20
2018-03-11T04:24:40.945Z,30.62
2018-03-11T04:27:08.494Z,30.27
2018-03-11T04:29:36.082Z,27.10
2018-03-11T04:32:03.628Z,35.93
2018-03-11T04:34:31.207Z,26.37
2018-03-11T04:36:58.796Z,27.92
2018-03-11T04:39:26.376Z,28.00
2018-03-11T04:41:54.646Z,30.42
2018-03-11T04:44:22.163Z,33.43
2018-03-11T04:46:49.740Z,32.63
2018-03-11T04:49:17.263Z,38.93
2018-03-11T04:51:44.908Z,37.90
2018-03-11T04:54:12.435Z,52.53
2018-03-11T04:56:40.319Z,30.10
2018-03-11T04:59:08.110Z,25.05
2018-03-11T05:01:35.922Z,30.07
2018-03-11T05:04:03.443Z,29.63
2018-03-11T05:06:31.007Z,33.63
2018-03-11T05:08:58.536Z,31.42
2018-03-11T05:11:26.108Z,44.40
2018-03-11T05:13:53.642Z,39.88
2018-03-11T05:16:21.156Z,50.93
2018-03-11T05:18:48.719Z,32.63
2018-03-11T05:21:16.297Z,24.33
2018-03-11T05:23:43.861Z,27.73
2018-03-11T05:26:11.394Z,24.73
2018-03-11T05:28:38.959Z,33.33
2018-03-11T05:31:06.499Z,26.77
2018-03-11T05:33:34.131Z,28.10
2018-03-11T05:36:01.662Z,22.25
2018-03-11T05:38:29.224Z,24.40
2018-03-11T05:40:56.742Z,27.00
2018-03-11T05:43:24.911Z,34.05
2018-03-11T05:45:52.429Z,30.87
2018-03-11T05:48:19.965Z,27.47
2018-03-11T05:50:47.542Z,25.13
2018-03-11T05:53:15.074Z,29.53
2018-03-11T05:55:42.652Z,29.60
2018-03-11T05:58:10.176Z,36.03
2018-03-11T06:00:37.755Z,30.90
2018-03-11T06:03:05.365Z,39.88
2018-03-11T06:05:32.961Z,27.73
2018-03-11T06:08:00.505Z,31.10
2018-03-11T06:10:28.095Z,36.23
2018-03-11T06:12:55.610Z,40.53
2018-03-11T06:15:23.160Z,35.00
2018-03-11T06:17:50.722Z,28.30
2018-03-11T06:20:18.248Z,26.97
2018-03-11T06:22:45.822Z,42.67
2018-03-11T06:25:13.353Z,27.23
2018-03-11T06:27:40.909Z,32.60
2018-03-11T06:30:08.454Z,28.20
2018-03-11T06:32:36.016Z,30.67
2018-03-11T06:35:03.556Z,29.93
2018-03-11T06:37:31.120Z,25.93
2018-03-11T06:39:58.633Z,29.53
2018-03-11T06:42:26.164Z,27.43
2018-03-11T06:44:53.737Z,25.60
2018-03-11T06:47:21.255Z,25.73
2018-03-11T06:49:48.815Z,27.00
2018-03-11T06:52:16.420Z,26.17
2018-03-11T06:54:43.993Z,24.10
2018-03-11T06:57:11.509Z,24.90
2018-03-11T06:59:39.091Z,25.03
2018-03-11T07:02:09.547Z,26.57
2018-03-11T07:04:37.207Z,28.65
2018-03-11T07:07:06.962Z,34.00
2018-03-11T07:09:34.701Z,31.80
2018-03-11T07:12:02.233Z,30.37
2018-03-11T07:14:29.770Z,21.83
2018-03-11T07:16:57.328Z,26.90
2018-03-11T07:19:25.294Z,41.72
2018-03-11T07:21:52.846Z,24.37
2018-03-11T07:24:20.363Z,23.17
2018-03-11T07:26:47.916Z,25.03
2018-03-11T07:29:15.463Z,32.17
2018-03-11T07:31:43.018Z,23.08
2018-03-11T07:34:10.541Z,24.77
2018-03-11T07:36:38.099Z,40.43
2018-03-11T07:39:05.622Z,28.93
2018-03-11T07:41:33.186Z,25.27
2018-03-11T07:44:00.699Z,25.30
2018-03-11T07:46:28.230Z,26.60
2018-03-11T07:48:55.782Z,29.07
2018-03-11T07:51:23.322Z,25.70
2018-03-11T07:53:50.884Z,27.77
2018-03-11T07:56:18.404Z,23.40
2018-03-11T07:58:45.981Z,21.87
2018-03-11T08:01:13.529Z,19.43
2018-03-11T08:03:41.095Z,16.48
2018-03-11T08:06:08.608Z,15.53
2018-03-11T08:08:36.350Z,13.93
2018-03-11T08:11:04.047Z,13.70
2018-03-11T08:13:31.567Z,13.57
2018-03-11T08:15:59.148Z,12.77
2018-03-11T08:18:26.674Z,12.93
2018-03-11T08:20:54.263Z,16.40
2018-03-11T08:23:21.817Z,12.43
2018-03-11T08:25:49.425Z,13.03
2018-03-11T08:28:16.923Z,11.77
2018-03-11T08:30:44.508Z,12.13
2018-03-11T08:33:12.033Z,12.33
2018-03-11T08:35:39.789Z,8.73
2018-03-11T08:38:07.448Z,5.97
2018-03-11T08:40:34.996Z,5.87
2018-03-11T08:43:02.537Z,4.13
2018-03-11T08:45:30.079Z,4.20
2018-03-11T08:47:57.605Z,4.47
2018-03-11T08:50:25.605Z,4.30
2018-03-11T08:52:53.149Z,4.40
2018-03-11T08:55:20.714Z,3.90
2018-03-11T08:57:48.248Z,4.07
2018-03-11T09:00:15.803Z,4.10
2018-03-11T09:02:43.329Z,3.93
2018-03-11T09:05:10.896Z,4.35
2018-03-11T09:07:38.411Z,4.22
2018-03-11T09:10:05.976Z,4.13
2018-03-11T09:12:33.509Z,3.75
2018-03-11T09:15:01.076Z,3.53
2018-03-11T09:17:28.628Z,3.80
2018-03-11T09:19:56.211Z,3.00
2018-03-11T09:22:23.732Z,3.67
2018-03-11T09:24:51.255Z,3.03
2018-03-11T09:27:19.116Z,3.13
2018-03-11T09:29:46.626Z,4.30
2018-03-11T09:32:14.180Z,3.20
2018-03-11T09:34:41.697Z,3.07
2018-03-11T09:37:09.272Z,3.17
2018-03-11T09:39:36.893Z,3.07
2018-03-11T09:42:04.440Z,2.87
2018-03-11T09:44:31.955Z,3.72
2018-03-11T09:46:59.510Z,4.23
2018-03-11T09:49:27.144Z,2.65
2018-03-11T09:51:54.692Z,3.07
2018-03-11T09:54:22.242Z,3.10
2018-03-11T09:56:49.784Z,2.97
2018-03-11T09:59:17.335Z,3.13
2018-03-11T10:01:44.850Z,2.83
2018-03-11T10:04:12.404Z,2.70
2018-03-11T10:06:39.921Z,2.37
2018-03-11T10:09:07.481Z,2.77
2018-03-11T10:11:35.006Z,2.50
2018-03-11T10:14:02.610Z,2.33
2018-03-11T10:16:31.244Z,2.92
2018-03-11T10:18:59.013Z,3.00
2018-03-11T10:21:29.477Z,2.60
2018-03-11T10:23:57.217Z,2.60
2018-03-11T10:26:28.242Z,5.33
2018-03-11T10:28:59.548Z,3.00
2018-03-11T10:31:27.423Z,3.37
2018-03-11T10:33:54.975Z,3.00
2018-03-11T10:36:22.536Z,2.57
2018-03-11T10:38:50.072Z,3.27
2018-03-11T10:41:17.656Z,3.07
2018-03-11T10:43:45.211Z,3.50
2018-03-11T10:46:12.768Z,2.93
2018-03-11T10:48:40.916Z,3.37
2018-03-11T10:51:08.564Z,4.15
2018-03-11T10:53:36.558Z,3.57
2018-03-11T10:56:04.280Z,3.70
2018-03-11T10:58:31.796Z,5.75
2018-03-11T11:01:17.690Z,3.53
2018-03-11T11:03:50.925Z,2.50
2018-03-11T11:06:19.581Z,3.60
2018-03-11T11:08:47.127Z,4.37
2018-03-11T11:11:15.542Z,4.77
2018-03-11T11:13:43.079Z,3.90
2018-03-11T11:16:10.969Z,3.83
2018-03-11T11:18:39.215Z,5.97
2018-03-11T11:21:06.921Z,11.17
2018-03-11T11:23:34.501Z,13.43
2018-03-11T11:26:02.055Z,13.90
2018-03-11T11:28:30.550Z,5.77
2018-03-11T11:30:58.109Z,6.70
2018-03-11T11:33:25.899Z,6.15
2018-03-11T11:35:55.189Z,5.90
2018-03-11T11:38:24.699Z,10.73
2018-03-11T11:40:53.000Z,11.80
2018-03-11T11:43:21.166Z,11.33
2018-03-11T11:45:49.480Z,16.30
2018-03-11T11:48:17.260Z,17.20
2018-03-11T11:50:45.361Z,13.10
2018-03-11T11:53:12.902Z,12.47
2018-03-11T11:55:40.455Z,6.83
2018-03-11T11:58:08.154Z,8.48
2018-03-11T12:00:36.337Z,8.15
2018-03-11T12:03:03.863Z,7.47
2018-03-11T12:05:31.481Z,5.13
2018-03-11T12:07:59.066Z,3.93
2018-03-11T12:10:28.269Z,4.10
2018-03-11T12:12:57.189Z,3.80
2018-03-11T12:15:24.712Z,2.90
2018-03-11T12:17:55.238Z,2.70
2018-03-11T12:20:23.400Z,2.92
2018-03-11T12:22:52.385Z,3.10
2018-03-11T12:25:21.192Z,2.40
2018-03-11T12:27:49.584Z,2.13
2018-03-11T12:30:17.101Z,2.08
2018-03-11T12:32:44.677Z,2.60
2018-03-11T12:35:13.020Z,3.03
2018-03-11T12:37:41.157Z,2.90
2018-03-11T12:40:09.122Z,2.30
2018-03-11T12:42:37.060Z,2.20
2018-03-11T12:45:08.291Z,2.47
2018-03-11T12:47:36.048Z,2.27
2018-03-11T12:50:04.781Z,2.13
2018-03-11T12:52:32.463Z,2.30
2018-03-11T12:54:59.983Z,2.50
2018-03-11T12:57:27.536Z,2.15
2018-03-11T12:59:55.064Z,3.00
2018-03-11T13:02:22.687Z,4.55
2018-03-11T13:04:50.213Z,4.33
2018-03-11T13:07:17.774Z,4.17
2018-03-11T13:09:45.322Z,4.37
2018-03-11T13:12:12.867Z,3.73
2018-03-11T13:14:40.429Z,3.30
2018-03-11T13:17:08.051Z,4.13
2018-03-11T13:19:35.576Z,2.95
2018-03-11T13:22:03.132Z,3.03
2018-03-11T13:24:30.782Z,2.37
2018-03-11T13:26:58.351Z,3.00
2018-03-11T13:29:25.920Z,2.70
2018-03-11T13:31:53.491Z,2.50
2018-03-11T13:34:27.586Z,2.73
2018-03-11T13:36:56.743Z,2.10
2018-03-11T13:39:36.144Z,9.40
2018-03-11T13:42:03.701Z,3.27
2018-03-11T13:44:31.227Z,2.43
2018-03-11T13:47:08.776Z,2.60
2018-03-11T13:49:36.923Z,2.03
2018-03-11T13:52:16.470Z,2.70
2018-03-11T13:54:45.766Z,2.30
2018-03-11T14:00:25.742Z,2.40
2018-03-11T14:02:53.633Z,2.27
2018-03-11T14:05:21.973Z,1.70
2018-03-11T14:07:54.489Z,2.05
2018-03-11T14:10:22.288Z,2.83
2018-03-11T14:12:49.908Z,2.00
2018-03-11T14:15:18.533Z,1.92
2018-03-11T14:17:46.115Z,1.50
2018-03-11T14:20:16.939Z,1.67
2018-03-11T14:22:48.761Z,2.40
2018-03-11T14:25:16.494Z,1.87
2018-03-11T14:27:46.918Z,1.40
2018-03-11T14:30:15.333Z,1.70
2018-03-11T14:32:42.858Z,2.20
2018-03-11T14:35:11.116Z,1.90
2018-03-11T14:37:38.664Z,1.90
2018-03-11T14:40:06.176Z,1.90
2018-03-11T14:42:33.964Z,1.50
2018-03-11T14:45:04.843Z,1.23
2018-03-11T14:47:32.578Z,2.10
2018-03-11T14:50:02.431Z,1.60
2018-03-11T14:52:30.443Z,1.50
2018-03-11T14:54:58.079Z,1.95
2018-03-11T14:57:27.867Z,1.62
2018-03-11T14:59:58.396Z,1.50
2018-03-11T15:02:26.026Z,1.20
2018-03-11T15:04:56.225Z,1.50
2018-03-11T15:07:25.970Z,1.87
2018-03-11T15:09:53.628Z,1.73
2018-03-11T15:12:24.651Z,1.58
2018-03-11T15:14:52.360Z,1.50
2018-03-11T15:17:20.953Z,1.85
2018-03-11T15:19:49.877Z,1.67
2018-03-11T15:22:20.312Z,2.23
2018-03-11T15:24:47.876Z,2.37
2018-03-11T15:27:17.920Z,2.00
2018-03-11T15:29:47.109Z,2.67
2018-03-11T15:32:14.886Z,2.23
2018-03-11T15:34:45.505Z,2.77
2018-03-11T15:37:16.299Z,3.42
2018-03-11T15:39:43.922Z,2.57
2018-03-11T15:42:12.412Z,2.23
2018-03-11T15:44:41.312Z,2.67
2018-03-11T15:47:09.061Z,2.75
2018-03-11T15:49:36.947Z,2.73
2018-03-11T15:52:05.615Z,4.62
2018-03-11T15:54:34.913Z,2.20
2018-03-11T15:57:02.990Z,3.03
2018-03-11T15:59:36.244Z,2.00
2018-03-11T16:02:04.959Z,2.17
2018-03-11T16:04:32.595Z,2.00
2018-03-11T16:07:03.476Z,2.35
2018-03-11T16:09:33.986Z,2.43
2018-03-11T16:12:01.665Z,2.60
2018-03-11T16:14:32.490Z,3.23
2018-03-11T16:17:03.074Z,2.77
2018-03-11T16:19:30.815Z,5.22
2018-03-11T16:21:58.331Z,2.27
2018-03-11T16:24:28.558Z,2.87
2018-03-11T16:26:53.403Z,2.50
2018-03-11T16:29:21.002Z,2.90
2018-03-11T16:31:48.550Z,3.00
2018-03-11T16:34:16.116Z,3.50
2018-03-11T16:36:43.638Z,2.78
2018-03-11T16:39:11.202Z,3.83
2018-03-11T16:41:38.730Z,3.07
2018-03-11T16:44:06.294Z,3.10
2018-03-11T16:46:33.815Z,3.00
2018-03-11T16:49:01.375Z,8.60
2018-03-11T16:51:28.990Z,11.83
2018-03-11T16:53:56.977Z,9.55
2018-03-11T16:56:26.199Z,20.03
2018-03-11T16:58:57.269Z,12.90
2018-03-11T17:01:28.876Z,5.00
2018-03-11T17:03:56.606Z,7.60
2018-03-11T17:06:24.315Z,4.40
2018-03-11T17:08:54.940Z,4.83
2018-03-11T17:11:28.344Z,4.47
2018-03-11T17:14:04.899Z,5.90
2018-03-11T17:16:33.088Z,4.80
2018-03-11T17:19:02.663Z,4.95
2018-03-11T17:21:30.831Z,6.37
2018-03-11T17:23:59.758Z,4.80
2018-03-11T17:26:27.551Z,5.50
2018-03-11T17:28:55.080Z,5.00
2018-03-11T17:31:22.626Z,6.60
2018-03-11T17:33:50.165Z,6.40
2018-03-11T17:36:17.719Z,8.50
2018-03-11T17:38:47.083Z,12.95
2018-03-11T17:41:14.684Z,13.00
2018-03-11T17:43:43.573Z,11.97
2018-03-11T17:46:11.184Z,14.23
2018-03-11T17:48:39.098Z,16.50
2018-03-11T17:51:06.691Z,17.53
2018-03-11T17:53:34.232Z,20.00
2018-03-11T17:56:02.312Z,20.88
2018-03-11T17:58:29.863Z,20.93
2018-03-11T18:00:57.422Z,17.63
2018-03-11T18:03:24.986Z,18.27
2018-03-11T18:05:52.520Z,20.10
2018-03-11T18:08:21.220Z,22.13
2018-03-11T18:10:48.749Z,22.13
2018-03-11T18:13:16.327Z,20.63
2018-03-11T18:15:43.905Z,19.42
2018-03-11T18:18:11.427Z,29.53
2018-03-11T18:20:39.005Z,28.52
2018-03-11T18:23:07.555Z,27.45
2018-03-11T18:25:35.140Z,22.73
2018-03-11T18:28:02.673Z,25.03
2018-03-11T18:30:30.246Z,25.47
2018-03-11T18:32:57.780Z,22.80
2018-03-11T18:35:25.511Z,25.03
2018-03-11T18:37:53.050Z,22.40
2018-03-11T18:40:20.612Z,28.30
2018-03-11T18:42:48.148Z,31.13
2018-03-11T18:45:15.728Z,24.92
2018-03-11T18:47:43.253Z,32.33
2018-03-11T18:50:10.813Z,32.90
2018-03-11T18:52:39.266Z,30.87
2018-03-11T18:55:06.888Z,25.43
2018-03-11T18:57:34.426Z,22.10
2018-03-11T19:00:03.116Z,17.27
2018-03-11T19:02:30.667Z,16.20
2018-03-11T19:04:58.220Z,16.87
2018-03-11T19:07:25.753Z,16.33
2018-03-11T19:09:53.312Z,17.07
2018-03-11T19:12:20.865Z,17.00
2018-03-11T19:14:48.423Z,31.27
2018-03-11T19:17:15.960Z,25.80
2018-03-11T19:19:43.508Z,29.73
2018-03-11T19:22:11.056Z,27.20
2018-03-11T19:24:38.636Z,32.97
2018-03-11T19:27:06.218Z,37.03
2018-03-11T19:29:33.744Z,19.93
2018-03-11T19:32:01.292Z,20.07
2018-03-11T19:34:28.910Z,21.17
2018-03-11T19:36:56.420Z,22.70
2018-03-11T19:39:23.981Z,24.55
2018-03-11T19:41:51.812Z,23.90
2018-03-11T19:44:19.641Z,30.07
2018-03-11T19:46:49.591Z,27.37
2018-03-11T19:49:17.204Z,22.67
2018-03-11T19:51:44.784Z,26.07
2018-03-11T19:54:12.311Z,27.03
2018-03-11T19:56:39.873Z,22.83
2018-03-11T19:59:07.524Z,24.15
2018-03-11T20:01:35.573Z,22.27
2018-03-11T20:04:03.265Z,23.23
2018-03-11T20:06:30.864Z,21.30
2018-03-11T20:08:58.411Z,20.03
2018-03-11T20:11:26.206Z,23.30
2018-03-11T20:13:53.789Z,17.47
2018-03-11T20:16:21.367Z,15.93
2018-03-11T20:18:48.895Z,20.13
2018-03-11T20:21:16.441Z,23.57
2018-03-11T20:23:45.241Z,19.92
2018-03-11T20:26:13.228Z,20.07
2018-03-11T20:28:41.119Z,19.83
2018-03-11T20:31:08.663Z,15.00
2018-03-11T20:33:36.231Z,15.57
2018-03-11T20:36:03.787Z,12.90
2018-03-11T20:38:31.427Z,13.80
2018-03-11T20:40:58.985Z,15.30
2018-03-11T20:43:26.608Z,11.40
2018-03-11T20:45:54.140Z,13.85
2018-03-11T20:48:21.749Z,10.63
2018-03-11T20:50:49.273Z,11.53
2018-03-11T20:53:16.847Z,15.77
2018-03-11T20:55:44.425Z,17.17
2018-03-11T20:58:12.012Z,19.20
2018-03-11T21:00:39.544Z,12.70
2018-03-11T21:03:07.115Z,12.60
2018-03-11T21:05:34.640Z,12.07
2018-03-11T21:08:02.213Z,15.45
2018-03-11T21:10:29.744Z,16.47
2018-03-11T21:12:57.426Z,13.50
2018-03-11T21:15:24.915Z,13.00
2018-03-11T21:17:52.488Z,11.37
2018-03-11T21:20:20.019Z,15.10
2018-03-11T21:22:47.597Z,18.60
2018-03-11T21:25:15.130Z,21.20
2018-03-11T21:27:42.690Z,21.70
2018-03-11T21:30:10.228Z,23.77
2018-03-11T21:32:37.842Z,24.00
2018-03-11T21:35:05.366Z,27.60
2018-03-11T21:37:33.458Z,26.23
2018-03-11T21:40:00.984Z,28.80
2018-03-11T21:42:28.540Z,38.20
2018-03-11T21:44:56.068Z,26.27
2018-03-11T21:47:23.628Z,28.70
2018-03-11T21:49:51.164Z,38.13
2018-03-11T21:52:18.719Z,25.73
2018-03-11T21:54:46.296Z,28.40
2018-03-11T21:57:13.875Z,29.27
2018-03-11T21:59:41.416Z,25.43
2018-03-11T22:02:08.975Z,25.00
2018-03-11T22:04:39.415Z,22.57
2018-03-11T22:07:08.614Z,28.37
2018-03-11T22:09:37.133Z,28.27
2018-03-11T22:12:05.364Z,32.00
2018-03-11T22:14:35.940Z,24.00
2018-03-11T22:17:05.022Z,24.27
2018-03-11T22:19:34.657Z,27.40
2018-03-11T22:22:04.298Z,36.35
2018-03-11T22:24:33.583Z,35.37
2018-03-11T22:27:02.785Z,33.90
2018-03-11T22:29:31.005Z,36.30
2018-03-11T22:31:59.593Z,34.57
2018-03-11T22:34:29.848Z,31.87
2018-03-11T22:36:59.218Z,40.60
2018-03-11T22:39:28.339Z,47.27
2018-03-11T22:41:57.550Z,26.03
2018-03-11T22:44:27.632Z,24.27
2018-03-11T22:46:57.528Z,19.17
2018-03-11T22:49:27.023Z,19.50
2018-03-11T22:51:57.062Z,22.30
2018-03-11T22:54:25.482Z,22.20
2018-03-11T22:56:55.290Z,30.07
2018-03-11T22:59:23.360Z,26.30
2018-03-11T23:01:51.790Z,48.63
2018-03-11T23:04:20.425Z,32.70
2018-03-11T23:06:50.749Z,27.60
2018-03-11T23:09:21.021Z,24.80
2018-03-11T23:11:48.896Z,29.73
2018-03-11T23:14:16.468Z,30.63
2018-03-11T23:16:43.984Z,51.57
2018-03-11T23:19:24.030Z,28.87
2018-03-11T23:21:52.464Z,28.23
2018-03-11T23:24:20.455Z,30.17
2018-03-11T23:26:49.289Z,24.15
2018-03-11T23:29:19.004Z,31.80
2018-03-11T23:31:46.867Z,33.67
2018-03-11T23:34:15.187Z,40.93
2018-03-11T23:36:43.060Z,33.57
2018-03-11T23:39:10.899Z,36.28
2018-03-11T23:41:42.584Z,34.50
2018-03-11T23:44:11.423Z,31.90
2018-03-11T23:46:39.136Z,44.30
2018-03-11T23:49:07.667Z,43.42
2018-03-11T23:51:35.815Z,40.30
2018-03-11T23:54:04.474Z,43.93
2018-03-11T23:56:36.901Z,39.07
2018-03-11T23:59:07.885Z,41.83
